Time;durP1;ratioP1;P1;durP2;ratioP2;P2;SDS_P1;SDS_P2;PMS_P1;PMS_P2;Temp;Humidity;BMP_temperature;BMP_pressure;BME280_temperature;BME280_humidity;BME280_pressure;Samples;Min_cycle;Max_cycle;Signal;HPM_P1;HPM_P2
2021/09/30 00:02:04;;;;;;;4.80;3.87;;;9.20;99.90;;;;;;5033721;28;20842;-66
2021/09/30 00:04:31;;;;;;;5.10;3.80;;;9.20;99.90;;;;;;5048678;28;20451;-66
2021/09/30 00:06:59;;;;;;;5.20;4.77;;;9.20;99.90;;;;;;5053628;28;20474;-66
2021/09/30 00:09:26;;;;;;;4.70;4.30;;;9.20;99.90;;;;;;5053345;28;20446;-66
2021/09/30 00:11:59;;;;;;;4.80;4.37;;;9.20;99.90;;;;;;5053584;28;20947;-66
2021/09/30 00:14:29;;;;;;;5.83;4.40;;;9.30;99.90;;;;;;5039327;28;20454;-66
2021/09/30 00:17:17;;;;;;;5.30;5.00;;;9.30;99.90;;;;;;5033490;28;20954;-66
2021/09/30 00:33:40;;;;;;;5.80;5.40;;;9.40;99.90;;;;;;5053017;28;20439;-66
2021/09/30 00:36:16;;;;;;;6.03;5.20;;;9.40;99.90;;;;;;5053101;28;20479;-66
2021/09/30 00:41:44;;;;;;;5.77;5.20;;;9.30;99.90;;;;;;5051323;28;20589;-66
2021/09/30 00:47:04;;;;;;;5.83;5.33;;;9.20;99.90;;;;;;5052808;28;20445;-66
2021/09/30 00:52:33;;;;;;;5.73;5.23;;;9.10;99.90;;;;;;5088762;27;20592;-65
2021/09/30 01:52:09;;;;;;;5.23;4.63;;;8.70;99.90;;;;;;5062048;28;20459;-66
2021/09/30 02:20:09;;;;;;;4.73;4.33;;;8.80;99.90;;;;;;5054036;28;20458;-66
2021/09/30 02:22:53;;;;;;;5.30;4.80;;;8.80;99.90;;;;;;5054045;28;20872;-65
2021/09/30 02:25:40;;;;;;;5.23;4.13;;;8.80;99.90;;;;;;5054087;28;20448;-66
2021/09/30 02:28:20;;;;;;;8.20;4.80;;;8.80;99.90;;;;;;5038162;28;20472;-65
2021/09/30 02:39:37;;;;;;;7.20;5.50;;;8.90;99.90;;;;;;5033639;28;21256;-66
2021/09/30 02:58:55;;;;;;;5.57;5.17;;;8.80;99.90;;;;;;5033382;28;20484;-65
2021/09/30 03:01:25;;;;;;;9.70;5.73;;;8.70;99.90;;;;;;5033486;28;20472;-66
2021/09/30 03:03:54;;;;;;;6.10;5.60;;;8.70;99.90;;;;;;5033272;28;20441;-66
2021/09/30 03:06:23;;;;;;;6.93;6.10;;;8.60;99.90;;;;;;5033399;28;20444;-66
2021/09/30 03:08:54;;;;;;;9.83;6.33;;;8.60;99.90;;;;;;5052323;28;20985;-66
2021/09/30 03:11:23;;;;;;;9.57;6.17;;;8.60;99.90;;;;;;5053289;28;20444;-66
2021/09/30 03:13:50;;;;;;;7.47;6.60;;;8.60;99.90;;;;;;5052226;28;20440;-65
2021/09/30 03:16:24;;;;;;;6.47;5.70;;;8.60;99.90;;;;;;5053150;28;20448;-65
2021/09/30 03:18:55;;;;;;;7.40;5.27;;;8.60;99.90;;;;;;5033067;28;20994;-66
2021/09/30 03:24:10;;;;;;;8.80;6.80;;;8.60;99.90;;;;;;5033056;28;20444;-66
2021/09/30 03:26:38;;;;;;;7.27;5.70;;;8.60;99.90;;;;;;5033522;28;20456;-65
2021/09/30 03:29:07;;;;;;;6.50;5.60;;;8.60;99.90;;;;;;5052455;28;20483;-66
2021/09/30 03:31:34;;;;;;;5.67;5.17;;;8.60;99.90;;;;;;5052650;28;20440;-65
2021/09/30 03:34:02;;;;;;;6.40;5.80;;;8.60;99.90;;;;;;5052789;28;20451;-66
2021/09/30 03:36:31;;;;;;;6.00;5.17;;;8.60;99.90;;;;;;5038858;28;20449;-66
2021/09/30 03:38:58;;;;;;;7.50;5.67;;;8.50;99.90;;;;;;5032348;28;20472;-66
2021/09/30 03:41:25;;;;;;;6.30;5.80;;;8.50;99.90;;;;;;5032461;28;20857;-65
2021/09/30 03:43:51;;;;;;;6.37;5.47;;;8.50;99.90;;;;;;5032615;28;20445;-64
2021/09/30 03:46:18;;;;;;;5.27;4.83;;;8.50;99.90;;;;;;5044055;28;20520;-65
2021/09/30 03:48:53;;;;;;;6.70;6.13;;;8.50;99.90;;;;;;5052098;28;20468;-65
2021/09/30 03:51:28;;;;;;;6.43;5.83;;;8.40;99.90;;;;;;5050649;28;20449;-68
2021/09/30 03:54:01;;;;;;;10.00;5.93;;;8.50;99.90;;;;;;5032381;28;20923;-68
2021/09/30 03:56:37;;;;;;;5.80;5.30;;;8.40;99.90;;;;;;5032191;28;20948;-67
2021/09/30 03:59:18;;;;;;;6.20;5.63;;;8.50;99.90;;;;;;5031982;28;20468;-68
2021/09/30 04:01:48;;;;;;;7.37;5.97;;;8.50;99.90;;;;;;5032344;28;20484;-67
2021/09/30 04:04:15;;;;;;;5.67;5.27;;;8.50;99.90;;;;;;5032270;28;20473;-66
2021/09/30 04:06:41;;;;;;;6.60;5.20;;;8.50;99.90;;;;;;5032331;28;20453;-67
2021/09/30 04:09:10;;;;;;;12.90;8.70;;;8.40;99.90;;;;;;5031809;28;20465;-66
2021/09/30 04:11:37;;;;;;;6.70;5.63;;;8.40;99.90;;;;;;5045444;28;20469;-68
2021/09/30 04:14:04;;;;;;;6.70;6.03;;;8.40;99.90;;;;;;5051958;28;20539;-67
2021/09/30 04:16:31;;;;;;;6.40;5.80;;;8.30;99.90;;;;;;5051981;28;20440;-67
2021/09/30 04:18:58;;;;;;;9.90;6.60;;;8.30;99.90;;;;;;5051533;28;20471;-69
2021/09/30 04:21:25;;;;;;;6.23;5.50;;;8.30;99.90;;;;;;5039363;28;20485;-65
2021/09/30 04:23:52;;;;;;;10.70;6.23;;;8.20;99.90;;;;;;5031883;28;20445;-68
2021/09/30 04:26:20;;;;;;;6.40;5.70;;;8.20;99.90;;;;;;5031639;28;20441;-68
2021/09/30 04:28:46;;;;;;;7.93;5.93;;;8.10;99.90;;;;;;5031545;28;20472;-68
2021/09/30 04:31:13;;;;;;;6.27;5.80;;;8.10;99.90;;;;;;5041521;28;20531;-68
2021/09/30 04:33:40;;;;;;;9.03;6.13;;;8.10;99.90;;;;;;5051308;28;20455;-67
2021/09/30 04:36:06;;;;;;;12.37;5.87;;;8.00;99.90;;;;;;5051589;28;20930;-67
2021/09/30 04:38:33;;;;;;;8.87;5.77;;;8.10;99.90;;;;;;5051355;28;20464;-68
2021/09/30 04:41:00;;;;;;;13.03;6.10;;;8.00;99.90;;;;;;5043122;28;20452;-68
2021/09/30 04:43:28;;;;;;;8.17;5.70;;;8.00;99.90;;;;;;5031539;28;20946;-67
2021/09/30 04:45:54;;;;;;;10.07;6.00;;;8.00;99.90;;;;;;5031709;28;20467;-65
2021/09/30 04:48:21;;;;;;;8.57;6.40;;;8.00;99.90;;;;;;5031127;28;20469;-66
2021/09/30 04:50:48;;;;;;;8.83;5.83;;;8.00;99.90;;;;;;5037338;28;20467;-66
2021/09/30 04:53:15;;;;;;;10.50;5.50;;;8.00;99.90;;;;;;5051521;28;20802;-66
2021/09/30 04:55:42;;;;;;;6.23;5.23;;;8.00;99.90;;;;;;5051418;28;20440;-66
2021/09/30 04:58:09;;;;;;;6.70;5.70;;;8.00;99.90;;;;;;5050988;28;20467;-66
2021/09/30 05:00:37;;;;;;;5.80;5.40;;;8.00;99.90;;;;;;5046804;28;20448;-65
2021/09/30 05:03:03;;;;;;;8.47;5.13;;;7.90;99.90;;;;;;5031439;28;20476;-66
2021/09/30 05:05:30;;;;;;;5.93;5.43;;;7.90;99.90;;;;;;5031409;28;20818;-67
2021/09/30 05:07:57;;;;;;;7.67;6.97;;;7.90;99.90;;;;;;5031110;28;20591;-66
2021/09/30 05:10:31;;;;;;;6.50;5.97;;;7.90;99.90;;;;;;5033329;28;20456;-66
2021/09/30 05:13:00;;;;;;;8.77;5.97;;;8.00;99.90;;;;;;5051220;28;20990;-67
2021/09/30 05:15:27;;;;;;;7.20;6.03;;;8.00;99.90;;;;;;5051275;28;20451;-66
2021/09/30 05:17:55;;;;;;;8.40;7.30;;;8.00;99.90;;;;;;5050990;28;20830;-66
2021/09/30 05:20:21;;;;;;;9.73;6.97;;;8.10;99.90;;;;;;5049086;28;20452;-67
2021/09/30 05:22:48;;;;;;;7.53;6.83;;;8.10;99.90;;;;;;5030857;28;20477;-66
2021/09/30 05:25:15;;;;;;;6.47;6.17;;;8.10;99.90;;;;;;5035820;28;21012;-66
2021/09/30 05:27:41;;;;;;;7.70;7.03;;;8.10;99.90;;;;;;5030972;28;20465;-66
2021/09/30 05:30:09;;;;;;;10.20;7.33;;;8.10;99.90;;;;;;5031018;28;20449;-67
2021/09/30 05:32:36;;;;;;;13.63;6.80;;;8.00;99.90;;;;;;5031135;28;20441;-66
2021/09/30 05:35:05;;;;;;;8.70;6.67;;;8.00;99.90;;;;;;5031081;28;20445;-66
2021/09/30 05:37:31;;;;;;;7.93;7.30;;;8.10;99.90;;;;;;5051686;28;20467;-67
2021/09/30 05:39:58;;;;;;;8.17;7.53;;;8.10;99.90;;;;;;5054495;28;20474;-66
2021/09/30 05:42:25;;;;;;;8.90;6.63;;;8.00;99.90;;;;;;5054686;28;20498;-66
2021/09/30 05:44:53;;;;;;;7.60;7.00;;;8.10;99.90;;;;;;5042989;28;20456;-66
2021/09/30 05:47:19;;;;;;;9.50;8.90;;;8.10;99.90;;;;;;5048056;28;20518;-66
2021/09/30 05:49:46;;;;;;;7.30;6.70;;;8.10;99.90;;;;;;5054371;28;20448;-65
2021/09/30 05:52:14;;;;;;;8.83;6.53;;;8.10;99.90;;;;;;5054194;28;20454;-66
2021/09/30 05:54:41;;;;;;;7.37;6.70;;;8.10;99.90;;;;;;5054466;28;20457;-66
2021/09/30 05:57:08;;;;;;;14.07;7.10;;;8.10;99.90;;;;;;5045174;28;20588;-66
2021/09/30 05:59:34;;;;;;;7.13;6.60;;;8.10;99.90;;;;;;5034220;28;20453;-66
2021/09/30 06:10:24;;;;;;;7.67;7.10;;;8.30;99.90;;;;;;5054162;28;20844;-66
2021/09/30 06:12:54;;;;;;;10.90;9.30;;;8.30;99.90;;;;;;5054090;28;20448;-66
2021/09/30 06:15:27;;;;;;;7.73;7.00;;;8.40;99.90;;;;;;5054134;28;20447;-66
2021/09/30 06:17:56;;;;;;;9.07;8.20;;;8.40;99.90;;;;;;5038628;28;20495;-66
2021/09/30 06:20:23;;;;;;;8.17;7.43;;;8.50;99.90;;;;;;5034077;28;20965;-66
2021/09/30 06:22:51;;;;;;;10.67;9.63;;;8.60;99.90;;;;;;5033985;28;20488;-66
2021/09/30 06:25:19;;;;;;;11.97;8.40;;;8.60;99.90;;;;;;5033992;28;20468;-66
2021/09/30 06:27:46;;;;;;;11.17;10.17;;;8.70;99.90;;;;;;5046940;28;20919;-64
2021/09/30 06:30:15;;;;;;;9.80;9.00;;;8.80;99.90;;;;;;5053800;28;20790;-65
2021/09/30 06:32:41;;;;;;;11.13;10.20;;;8.90;99.90;;;;;;5053961;28;20441;-65
2021/09/30 06:35:09;;;;;;;10.20;9.60;;;8.90;99.90;;;;;;5053787;28;20455;-64
2021/09/30 06:37:36;;;;;;;10.47;9.60;;;9.00;99.90;;;;;;5053904;28;20480;-64
2021/09/30 06:40:06;;;;;;;12.10;11.40;;;9.10;99.90;;;;;;5053567;28;20941;-64
2021/09/30 06:42:32;;;;;;;11.33;10.20;;;9.20;99.90;;;;;;5053666;28;20480;-65
2021/09/30 06:44:59;;;;;;;10.07;9.47;;;9.30;99.90;;;;;;5053606;28;20445;-65
2021/09/30 06:47:26;;;;;;;13.53;10.77;;;9.30;99.90;;;;;;5053421;28;20843;-65
2021/09/30 06:49:52;;;;;;;11.03;10.37;;;9.30;99.90;;;;;;5052979;28;20455;-65
2021/09/30 06:52:19;;;;;;;12.40;11.60;;;9.40;99.90;;;;;;5053377;28;20448;-65
2021/09/30 06:54:46;;;;;;;11.40;10.70;;;9.50;99.90;;;;;;5053415;28;20463;-65
2021/09/30 06:57:14;;;;;;;11.87;10.87;;;9.60;99.90;;;;;;5053262;28;20507;-65
2021/09/30 06:59:40;;;;;;;11.50;10.90;;;9.70;99.90;;;;;;5053096;28;20514;-65
2021/09/30 07:02:10;;;;;;;11.43;10.83;;;9.80;99.90;;;;;;5053103;28;20484;-65
2021/09/30 07:04:38;;;;;;;12.57;11.90;;;9.80;99.90;;;;;;5053797;28;20452;-64
2021/09/30 07:07:05;;;;;;;12.47;11.73;;;9.90;99.90;;;;;;5053809;28;20475;-65
2021/09/30 07:09:32;;;;;;;12.47;11.63;;;10.10;99.90;;;;;;5054098;28;20440;-65
2021/09/30 07:11:59;;;;;;;12.73;11.97;;;10.10;99.90;;;;;;5053872;28;20802;-64
2021/09/30 07:14:28;;;;;;;12.60;11.60;;;10.20;99.90;;;;;;5053855;28;20526;-64
2021/09/30 07:16:55;;;;;;;13.50;12.70;;;10.30;99.90;;;;;;5053338;28;20961;-64
2021/09/30 07:19:22;;;;;;;13.27;12.50;;;10.30;99.90;;;;;;5053131;28;20471;-64
2021/09/30 07:21:48;;;;;;;13.03;12.43;;;10.30;99.90;;;;;;5053002;28;20457;-64
2021/09/30 07:24:15;;;;;;;13.20;12.60;;;10.40;99.90;;;;;;5052985;28;20452;-65
2021/09/30 07:26:42;;;;;;;12.90;12.13;;;10.50;99.90;;;;;;5052865;28;20455;-64
2021/09/30 07:29:09;;;;;;;13.57;12.47;;;10.60;99.90;;;;;;5052519;28;20440;-63
2021/09/30 07:31:37;;;;;;;13.83;12.60;;;10.70;99.90;;;;;;5053205;28;20448;-65
2021/09/30 07:34:04;;;;;;;13.63;12.73;;;10.80;99.90;;;;;;5053692;28;20441;-65
2021/09/30 07:36:31;;;;;;;14.83;13.93;;;10.90;99.90;;;;;;5053347;28;20444;-64
2021/09/30 07:38:58;;;;;;;14.23;13.33;;;11.00;99.90;;;;;;5052760;28;20535;-65
2021/09/30 07:41:25;;;;;;;14.77;14.07;;;11.10;99.90;;;;;;5053213;28;20445;-64
2021/09/30 07:43:51;;;;;;;15.00;14.40;;;11.30;99.90;;;;;;5052885;28;20819;-64
2021/09/30 07:46:18;;;;;;;15.63;14.40;;;11.50;99.90;;;;;;5052832;28;20444;-65
2021/09/30 07:48:46;;;;;;;14.97;14.23;;;11.60;99.90;;;;;;5052538;28;20822;-64
2021/09/30 07:51:13;;;;;;;15.20;14.30;;;11.70;99.90;;;;;;5052584;28;20456;-65
2021/09/30 07:53:40;;;;;;;15.77;15.00;;;11.80;99.90;;;;;;5053049;28;20440;-65
2021/09/30 07:56:07;;;;;;;15.73;14.80;;;11.90;99.90;;;;;;5052692;28;20444;-65
2021/09/30 07:58:33;;;;;;;15.83;15.20;;;12.00;99.90;;;;;;5052819;28;20468;-64
2021/09/30 08:01:00;;;;;;;16.33;15.33;;;12.20;99.90;;;;;;5052441;28;20444;-65
2021/09/30 08:03:29;;;;;;;16.13;15.13;;;12.30;99.90;;;;;;5052957;28;21005;-65
2021/09/30 08:05:57;;;;;;;16.47;15.67;;;12.40;99.90;;;;;;5052635;28;20476;-64
2021/09/30 08:08:23;;;;;;;17.13;15.90;;;12.50;99.90;;;;;;5052348;28;20464;-65
2021/09/30 08:10:50;;;;;;;17.07;15.97;;;12.60;99.90;;;;;;5052605;28;20440;-64
2021/09/30 08:13:17;;;;;;;16.00;15.20;;;12.60;99.90;;;;;;5052449;28;20447;-64
2021/09/30 08:15:44;;;;;;;15.70;14.83;;;12.50;99.90;;;;;;5052524;28;20539;-64
2021/09/30 08:18:10;;;;;;;15.93;15.23;;;12.70;99.90;;;;;;5053113;28;20601;-64
2021/09/30 08:20:41;;;;;;;17.27;16.07;;;12.80;99.90;;;;;;5053151;28;20456;-65
2021/09/30 08:23:10;;;;;;;17.63;16.63;;;12.90;99.90;;;;;;5052729;28;20575;-64
2021/09/30 08:25:36;;;;;;;18.30;17.50;;;13.10;99.90;;;;;;5053105;28;20440;-63
2021/09/30 08:28:03;;;;;;;18.63;17.67;;;13.40;99.90;;;;;;5052281;28;20468;-64
2021/09/30 08:30:30;;;;;;;18.23;17.27;;;13.60;99.90;;;;;;5052156;28;20455;-65
2021/09/30 08:32:57;;;;;;;18.67;17.40;;;13.80;99.90;;;;;;5052799;28;20471;-64
2021/09/30 08:35:24;;;;;;;18.40;17.10;;;14.00;99.90;;;;;;5052535;28;20787;-65
2021/09/30 08:37:51;;;;;;;19.13;17.83;;;14.10;99.90;;;;;;5052420;28;20464;-64
2021/09/30 08:40:19;;;;;;;17.73;16.83;;;14.10;99.90;;;;;;5052180;28;20444;-65
2021/09/30 08:42:48;;;;;;;17.93;16.13;;;14.10;99.90;;;;;;5052860;28;21022;-65
2021/09/30 08:45:19;;;;;;;17.07;15.80;;;14.10;99.90;;;;;;5052893;28;20503;-64
2021/09/30 08:47:46;;;;;;;15.87;15.17;;;14.10;99.90;;;;;;5052282;28;20533;-65
2021/09/30 08:50:13;;;;;;;17.13;16.10;;;14.00;99.90;;;;;;5051937;28;20448;-65
2021/09/30 08:52:41;;;;;;;16.60;15.63;;;13.90;99.90;;;;;;5052255;28;20436;-65
2021/09/30 08:55:08;;;;;;;16.63;15.57;;;13.80;99.90;;;;;;5052080;28;20440;-65
2021/09/30 08:57:36;;;;;;;17.30;16.20;;;13.80;99.90;;;;;;5051835;28;21087;-64
2021/09/30 09:00:07;;;;;;;17.37;16.33;;;14.00;99.90;;;;;;5051542;28;20447;-64
2021/09/30 09:02:41;;;;;;;17.77;16.43;;;14.10;99.90;;;;;;5052501;28;20487;-65
2021/09/30 09:05:09;;;;;;;16.10;15.23;;;14.10;99.90;;;;;;5052651;28;20444;-65
2021/09/30 09:07:35;;;;;;;16.20;15.40;;;14.20;99.90;;;;;;5052607;28;20456;-64
2021/09/30 09:10:08;;;;;;;16.97;16.07;;;14.40;99.90;;;;;;5052440;28;20444;-64
2021/09/30 09:12:37;;;;;;;16.83;15.83;;;14.40;99.90;;;;;;5053692;28;20451;-64
2021/09/30 09:15:05;;;;;;;16.07;15.03;;;14.60;99.90;;;;;;5056703;28;20455;-64
2021/09/30 09:17:32;;;;;;;16.27;15.43;;;14.70;99.90;;;;;;5056874;28;20965;-65
2021/09/30 09:20:02;;;;;;;15.63;14.93;;;14.60;99.90;;;;;;5056103;28;20565;-63
2021/09/30 09:22:31;;;;;;;15.80;15.13;;;14.60;99.90;;;;;;5055771;28;20480;-64
2021/09/30 09:25:01;;;;;;;16.77;15.90;;;14.70;99.90;;;;;;5056309;28;20938;-63
2021/09/30 09:27:46;;;;;;;16.27;15.33;;;14.80;99.90;;;;;;5056573;28;20467;-64
2021/09/30 09:30:32;;;;;;;17.30;16.37;;;14.90;99.90;;;;;;5055962;28;20538;-64
2021/09/30 09:33:05;;;;;;;16.43;15.73;;;14.90;99.90;;;;;;5055873;28;20505;-63
2021/09/30 09:35:56;;;;;;;19.10;17.20;;;15.00;99.90;;;;;;5056031;28;20443;-63
2021/09/30 09:38:27;;;;;;;16.87;15.87;;;15.10;99.90;;;;;;5055965;28;20490;-62
2021/09/30 09:40:56;;;;;;;18.10;17.20;;;15.20;99.90;;;;;;5056098;28;20455;-62
2021/09/30 09:43:33;;;;;;;18.50;17.50;;;15.30;99.90;;;;;;5055719;28;20984;-62
2021/09/30 09:46:01;;;;;;;19.13;18.03;;;15.50;99.90;;;;;;5055824;28;20443;-63
2021/09/30 09:48:32;;;;;;;19.13;18.20;;;15.60;99.90;;;;;;5055418;28;20467;-62
2021/09/30 09:50:58;;;;;;;17.33;16.27;;;15.80;99.90;;;;;;5055440;28;20464;-63
2021/09/30 09:53:27;;;;;;;17.10;16.30;;;15.80;99.90;;;;;;5055337;28;20447;-62
2021/09/30 09:56:07;;;;;;;19.73;18.50;;;15.90;99.90;;;;;;5055486;28;20435;-62
2021/09/30 09:58:43;;;;;;;17.10;16.27;;;16.20;99.90;;;;;;5055377;28;20535;-62
2021/09/30 10:01:09;;;;;;;19.00;17.93;;;16.60;99.90;;;;;;5055176;28;20462;-62
2021/09/30 10:03:36;;;;;;;19.37;18.43;;;16.70;99.90;;;;;;5055056;28;20491;-63
2021/09/30 10:06:04;;;;;;;19.13;18.10;;;16.60;98.90;;;;;;5055034;28;20451;-62
2021/09/30 10:08:32;;;;;;;18.37;17.20;;;16.60;98.70;;;;;;5054746;28;20468;-62
2021/09/30 10:10:59;;;;;;;17.97;17.07;;;16.60;98.80;;;;;;5055202;28;20868;-63
2021/09/30 10:13:31;;;;;;;18.27;17.27;;;16.70;99.00;;;;;;5054839;28;20444;-62
2021/09/30 10:15:59;;;;;;;19.47;18.47;;;16.60;98.20;;;;;;5054819;28;20543;-63
2021/09/30 10:18:27;;;;;;;18.47;17.63;;;16.80;99.20;;;;;;5054843;28;20460;-63
2021/09/30 10:20:54;;;;;;;19.33;17.37;;;17.10;98.10;;;;;;5054035;28;20455;-63
2021/09/30 10:23:23;;;;;;;16.80;16.20;;;17.20;97.00;;;;;;5053390;28;20562;-63
2021/09/30 10:25:52;;;;;;;18.83;17.73;;;17.30;94.50;;;;;;5054089;28;20440;-63
2021/09/30 10:28:19;;;;;;;19.10;17.93;;;17.40;93.60;;;;;;5053639;28;20468;-62
2021/09/30 10:30:48;;;;;;;19.13;18.13;;;18.00;92.30;;;;;;5053830;28;20860;-63
2021/09/30 10:33:19;;;;;;;17.63;16.97;;;18.50;91.60;;;;;;5054036;28;20447;-62
2021/09/30 10:35:48;;;;;;;18.97;18.07;;;18.60;84.90;;;;;;5053957;28;20448;-63
2021/09/30 10:38:23;;;;;;;19.87;18.57;;;18.80;83.20;;;;;;5053494;28;20468;-62
2021/09/30 10:41:12;;;;;;;19.13;18.33;;;18.90;80.30;;;;;;5053763;28;20439;-62
2021/09/30 10:43:42;;;;;;;19.00;18.00;;;19.00;76.70;;;;;;5050826;28;20554;-63
2021/09/30 10:46:40;;;;;;;18.90;18.03;;;18.80;74.60;;;;;;5053464;28;20498;-63
2021/09/30 10:49:47;;;;;;;18.40;17.57;;;18.80;74.90;;;;;;5052956;28;20504;-62
2021/09/30 10:52:19;;;;;;;17.47;16.57;;;18.90;73.40;;;;;;5053352;28;20496;-63
2021/09/30 10:54:50;;;;;;;18.47;17.60;;;19.80;73.80;;;;;;5053391;28;20440;-62
2021/09/30 10:57:37;;;;;;;18.77;17.80;;;20.60;71.30;;;;;;5046526;28;20469;-63
2021/09/30 11:00:05;;;;;;;18.03;17.43;;;21.00;69.00;;;;;;5047291;28;20451;-64
2021/09/30 11:02:52;;;;;;;19.87;18.87;;;21.10;67.70;;;;;;5053308;28;20498;-63
2021/09/30 11:05:20;;;;;;;19.00;18.17;;;21.20;59.50;;;;;;5053262;28;20451;-63
2021/09/30 11:08:06;;;;;;;20.37;19.07;;;21.70;59.00;;;;;;5053384;28;20460;-64
2021/09/30 11:10:33;;;;;;;20.47;19.47;;;22.30;57.90;;;;;;5053163;28;20444;-65
2021/09/30 11:13:17;;;;;;;19.93;19.07;;;22.30;54.00;;;;;;5053409;28;20436;-63
2021/09/30 11:16:05;;;;;;;19.07;17.90;;;22.60;52.70;;;;;;5053452;28;20480;-64
2021/09/30 11:18:44;;;;;;;20.33;19.53;;;22.60;52.30;;;;;;5052878;28;20483;-64
2021/09/30 11:21:47;;;;;;;19.50;18.80;;;23.20;51.20;;;;;;5053350;28;20452;-64
2021/09/30 11:24:29;;;;;;;19.97;19.17;;;24.90;49.50;;;;;;5053045;28;20475;-64
2021/09/30 11:27:14;;;;;;;18.70;18.00;;;25.90;47.40;;;;;;5052985;28;20445;-65
2021/09/30 11:29:42;;;;;;;20.20;19.27;;;26.90;45.10;;;;;;5052780;28;20439;-63
2021/09/30 11:32:25;;;;;;;19.53;18.60;;;27.70;42.70;;;;;;5052777;28;20792;-64
2021/09/30 11:34:53;;;;;;;19.40;18.70;;;28.00;39.80;;;;;;5052559;28;21071;-63
2021/09/30 11:37:27;;;;;;;20.20;19.30;;;28.70;37.60;;;;;;5052800;28;20467;-63
2021/09/30 11:39:55;;;;;;;20.03;19.20;;;29.00;35.80;;;;;;5052574;28;20440;-65
2021/09/30 11:42:25;;;;;;;20.23;19.30;;;28.00;35.30;;;;;;5052515;28;20832;-64
2021/09/30 11:45:00;;;;;;;20.60;19.63;;;27.50;37.00;;;;;;5052558;28;20487;-63
2021/09/30 11:47:29;;;;;;;20.30;19.40;;;27.80;36.60;;;;;;5052427;28;20529;-63
2021/09/30 11:49:56;;;;;;;19.60;18.80;;;29.00;35.30;;;;;;5052273;28;20834;-65
2021/09/30 11:52:25;;;;;;;19.27;18.50;;;29.40;34.80;;;;;;5053433;28;20466;-64
2021/09/30 11:54:52;;;;;;;19.80;18.80;;;28.40;35.00;;;;;;5053517;28;20774;-64
2021/09/30 11:57:22;;;;;;;19.43;18.63;;;27.50;35.90;;;;;;5052526;28;20464;-62
2021/09/30 11:59:49;;;;;;;20.30;19.20;;;26.20;38.30;;;;;;5052016;28;20818;-63
2021/09/30 12:02:16;;;;;;;20.60;19.70;;;25.50;39.30;;;;;;5052165;28;20451;-63
2021/09/30 12:04:45;;;;;;;20.30;19.17;;;25.80;40.40;;;;;;5052569;28;20480;-65
2021/09/30 12:07:16;;;;;;;19.53;18.50;;;25.50;39.50;;;;;;5052122;28;20512;-62
2021/09/30 12:09:45;;;;;;;20.20;19.30;;;24.60;40.50;;;;;;5051944;28;20436;-63
2021/09/30 12:12:12;;;;;;;20.43;19.23;;;24.20;41.60;;;;;;5052013;28;20452;-63
2021/09/30 12:14:40;;;;;;;20.20;19.10;;;24.50;41.10;;;;;;5052247;28;20821;-63
2021/09/30 12:17:09;;;;;;;20.57;19.50;;;24.20;41.20;;;;;;5052973;28;20464;-65
2021/09/30 12:19:39;;;;;;;19.00;18.40;;;23.40;42.30;;;;;;5052753;28;20436;-64
2021/09/30 12:22:09;;;;;;;19.40;18.53;;;23.70;40.60;;;;;;5052803;28;20476;-63
2021/09/30 12:24:37;;;;;;;19.07;18.20;;;22.90;41.40;;;;;;5052600;28;20483;-63
2021/09/30 12:27:08;;;;;;;18.87;17.87;;;22.80;42.90;;;;;;5052532;28;20455;-64
2021/09/30 12:29:40;;;;;;;19.77;18.70;;;22.50;43.10;;;;;;5052533;28;20533;-64
2021/09/30 12:32:09;;;;;;;21.53;20.17;;;22.50;43.90;;;;;;5052778;28;20464;-63
2021/09/30 12:34:36;;;;;;;21.07;20.27;;;22.50;44.50;;;;;;5053008;28;20448;-64
2021/09/30 12:37:03;;;;;;;20.53;19.73;;;22.40;44.00;;;;;;5052147;28;20877;-63
2021/09/30 12:39:32;;;;;;;19.30;18.60;;;22.10;44.50;;;;;;5051551;28;20814;-64
2021/09/30 12:42:14;;;;;;;19.73;18.90;;;21.60;44.60;;;;;;5052483;28;20452;-63
2021/09/30 12:44:43;;;;;;;19.60;18.90;;;21.50;45.70;;;;;;5052492;28;20476;-64
2021/09/30 12:47:10;;;;;;;20.50;19.60;;;21.70;46.00;;;;;;5052091;28;20807;-64
2021/09/30 12:49:38;;;;;;;21.27;20.13;;;21.60;45.90;;;;;;5052003;28;20480;-63
2021/09/30 12:52:18;;;;;;;20.80;19.70;;;22.20;46.80;;;;;;5052335;28;20993;-63
2021/09/30 12:54:46;;;;;;;19.53;18.80;;;22.50;45.30;;;;;;5052374;28;20476;-63
2021/09/30 12:57:15;;;;;;;19.83;19.00;;;22.20;46.00;;;;;;5051777;28;20468;-63
2021/09/30 13:00:06;;;;;;;20.30;19.40;;;22.00;46.10;;;;;;5052000;28;20505;-63
2021/09/30 13:02:33;;;;;;;19.73;18.93;;;21.80;46.30;;;;;;5052345;28;20455;-64
2021/09/30 13:05:00;;;;;;;20.40;19.30;;;21.70;46.40;;;;;;5062985;22;20847;-60
2021/09/30 13:07:41;;;;;;;20.50;19.63;;;21.70;46.90;;;;;;5039760;28;20444;-59
2021/09/30 13:10:09;;;;;;;20.63;19.60;;;23.10;46.90;;;;;;5051191;28;20444;-60
2021/09/30 13:12:37;;;;;;;20.67;19.63;;;23.60;45.50;;;;;;5051298;28;20435;-59
2021/09/30 13:15:05;;;;;;;20.60;19.50;;;23.70;44.50;;;;;;5051181;28;20452;-58
2021/09/30 13:17:31;;;;;;;20.53;19.73;;;23.50;44.50;;;;;;5051122;28;20440;-60
2021/09/30 13:20:00;;;;;;;20.77;19.43;;;22.90;44.00;;;;;;5050674;28;20976;-58
2021/09/30 13:22:30;;;;;;;19.40;18.60;;;22.40;45.20;;;;;;5051119;28;20436;-62
2021/09/30 13:24:58;;;;;;;20.60;19.70;;;21.80;45.60;;;;;;5050907;28;20487;-64
2021/09/30 13:27:28;;;;;;;19.70;18.90;;;21.50;47.30;;;;;;5051024;28;20452;-62
2021/09/30 13:29:57;;;;;;;20.10;19.30;;;21.20;47.00;;;;;;5050850;28;20839;-61
2021/09/30 13:32:26;;;;;;;21.43;20.43;;;20.90;48.00;;;;;;5050898;28;20964;-63
2021/09/30 13:34:53;;;;;;;20.73;19.53;;;20.60;49.30;;;;;;5050807;28;20470;-63
2021/09/30 13:37:19;;;;;;;21.33;20.10;;;20.50;49.70;;;;;;5050974;28;20815;-63
2021/09/30 13:39:46;;;;;;;21.40;20.27;;;20.00;49.70;;;;;;5050612;28;20440;-62
2021/09/30 13:42:13;;;;;;;20.80;19.60;;;19.70;50.30;;;;;;5050806;28;20960;-61
2021/09/30 13:44:39;;;;;;;21.10;19.90;;;19.50;50.70;;;;;;5050593;28;20483;-62
2021/09/30 13:47:08;;;;;;;20.10;18.77;;;19.20;51.90;;;;;;5050899;28;20446;-63
2021/09/30 13:49:35;;;;;;;19.37;18.57;;;19.20;52.60;;;;;;5050509;28;20463;-60
2021/09/30 13:52:02;;;;;;;20.10;19.10;;;19.10;53.00;;;;;;5050817;28;20444;-63
2021/09/30 13:54:28;;;;;;;21.40;20.10;;;19.00;53.80;;;;;;5050550;28;20440;-61
2021/09/30 13:56:55;;;;;;;20.90;19.90;;;18.90;54.30;;;;;;5050783;28;20447;-63
2021/09/30 13:59:22;;;;;;;20.47;19.50;;;19.00;54.70;;;;;;5052812;28;20962;-62
2021/09/30 14:01:48;;;;;;;19.77;18.73;;;19.00;55.00;;;;;;5054418;28;20447;-60
2021/09/30 14:04:16;;;;;;;19.53;18.53;;;18.80;55.70;;;;;;5054151;28;20550;-60
2021/09/30 14:06:43;;;;;;;19.67;18.87;;;18.50;55.40;;;;;;5054207;28;20879;-63
2021/09/30 14:09:10;;;;;;;20.10;19.30;;;18.40;56.10;;;;;;5053785;28;20949;-60
2021/09/30 14:11:36;;;;;;;19.60;18.60;;;18.20;56.50;;;;;;5054143;28;20447;-63
2021/09/30 14:14:03;;;;;;;21.00;19.90;;;17.90;58.10;;;;;;5054092;28;20441;-63
2021/09/30 14:16:30;;;;;;;19.67;18.90;;;17.70;58.50;;;;;;5053925;28;20467;-65
2021/09/30 14:18:57;;;;;;;20.50;19.40;;;17.60;59.90;;;;;;5053749;28;20440;-63
2021/09/30 14:21:25;;;;;;;19.00;18.20;;;17.60;60.90;;;;;;5053936;28;20444;-58
2021/09/30 14:23:51;;;;;;;19.80;18.90;;;17.70;61.70;;;;;;5053820;28;20444;-59
2021/09/30 14:26:18;;;;;;;19.50;18.73;;;17.70;61.00;;;;;;5053687;28;20471;-63
2021/09/30 14:28:45;;;;;;;19.63;18.73;;;17.60;62.10;;;;;;5053478;28;20448;-61
2021/09/30 14:31:11;;;;;;;19.70;18.90;;;17.50;62.70;;;;;;5053673;28;20444;-60
2021/09/30 14:33:39;;;;;;;19.80;19.10;;;17.30;62.70;;;;;;5053786;28;20840;-60
2021/09/30 14:36:05;;;;;;;20.37;19.47;;;17.10;63.10;;;;;;5053598;28;20504;-62
2021/09/30 14:38:33;;;;;;;19.20;18.40;;;17.20;65.10;;;;;;5053355;28;20761;-62
2021/09/30 14:41:01;;;;;;;19.47;18.47;;;17.20;63.70;;;;;;5053562;28;20453;-60
2021/09/30 14:43:31;;;;;;;19.97;18.87;;;17.40;63.60;;;;;;5053463;28;20954;-62
2021/09/30 14:45:58;;;;;;;19.37;18.47;;;17.50;62.70;;;;;;5053193;28;20495;-61
2021/09/30 14:48:25;;;;;;;19.27;18.40;;;17.80;63.10;;;;;;5053338;28;20444;-60
2021/09/30 14:50:52;;;;;;;19.83;18.83;;;17.90;62.00;;;;;;5053453;28;20440;-64
2021/09/30 14:53:19;;;;;;;18.40;17.70;;;18.20;61.80;;;;;;5053446;28;20495;-63
2021/09/30 14:55:47;;;;;;;19.03;17.97;;;18.40;60.50;;;;;;5053257;28;20464;-61
2021/09/30 14:58:14;;;;;;;18.70;18.00;;;18.60;60.40;;;;;;5053183;28;20444;-60
2021/09/30 15:00:40;;;;;;;18.73;17.70;;;18.50;59.60;;;;;;5053138;28;20444;-60
2021/09/30 15:03:07;;;;;;;18.80;17.90;;;18.30;59.80;;;;;;5053245;28;20444;-62
2021/09/30 15:05:34;;;;;;;19.83;18.70;;;18.30;60.20;;;;;;5052858;28;20488;-64
2021/09/30 15:08:02;;;;;;;19.13;18.13;;;18.30;60.20;;;;;;5053039;28;20444;-61
2021/09/30 15:10:29;;;;;;;18.77;18.07;;;18.20;60.70;;;;;;5052867;28;20444;-62